sensor_id;sensor_type;location;lat;lon;timestamp;temperature;humidity
15274;DHT22;7738;49.532;11.156;2022-12-29T00:01:18;5.30;99.90
15274;DHT22;7738;49.532;11.156;2022-12-29T00:03:50;5.30;99.90
15274;DHT22;7738;49.532;11.156;2022-12-29T00:06:21;5.20;99.90
15274;DHT22;7738;49.532;11.156;2022-12-29T00:08:51;5.20;99.90
15274;DHT22;7738;49.532;11.156;2022-12-29T00:11:22;5.40;99.90
15274;DHT22;7738;49.532;11.156;2022-12-29T00:13:53;5.10;99.90
15274;DHT22;7738;49.532;11.156;2022-12-29T00:16:36;5.50;99.90
15274;DHT22;7738;49.532;11.156;2022-12-29T00:19:09;5.40;99.90
15274;DHT22;7738;49.532;11.156;2022-12-29T00:21:59;6.00;99.90
15274;DHT22;7738;49.532;11.156;2022-12-29T00:24:44;5.70;99.90
15274;DHT22;7738;49.532;11.156;2022-12-29T00:27:28;5.40;99.90
15274;DHT22;7738;49.532;11.156;2022-12-29T00:30:13;5.20;99.90
15274;DHT22;7738;49.532;11.156;2022-12-29T00:32:56;5.70;99.90
15274;DHT22;7738;49.532;11.156;2022-12-29T00:35:45;5.50;99.90
15274;DHT22;7738;49.532;11.156;2022-12-29T00:38:16;5.60;99.90
15274;DHT22;7738;49.532;11.156;2022-12-29T00:40:58;6.10;99.90
15274;DHT22;7738;49.532;11.156;2022-12-29T00:46:23;5.40;99.90
15274;DHT22;7738;49.532;11.156;2022-12-29T00:48:54;5.50;99.90
15274;DHT22;7738;49.532;11.156;2022-12-29T00:51:40;5.70;99.90
15274;DHT22;7738;49.532;11.156;2022-12-29T00:59:11;5.90;99.90
15274;DHT22;7738;49.532;11.156;2022-12-29T01:04:12;5.40;99.90
15274;DHT22;7738;49.532;11.156;2022-12-29T01:06:47;6.30;99.90
15274;DHT22;7738;49.532;11.156;2022-12-29T01:09:17;5.80;99.90
15274;DHT22;7738;49.532;11.156;2022-12-29T01:12:00;5.90;99.90
15274;DHT22;7738;49.532;11.156;2022-12-29T01:14:30;5.70;99.90
15274;DHT22;7738;49.532;11.156;2022-12-29T01:22:05;5.90;99.90
15274;DHT22;7738;49.532;11.156;2022-12-29T01:27:05;5.90;99.90
15274;DHT22;7738;49.532;11.156;2022-12-29T01:34:38;5.50;99.90
15274;DHT22;7738;49.532;11.156;2022-12-29T01:37:11;5.90;99.90
15274;DHT22;7738;49.532;11.156;2022-12-29T01:39:41;5.50;99.90
15274;DHT22;7738;49.532;11.156;2022-12-29T01:42:15;6.00;99.90
15274;DHT22;7738;49.532;11.156;2022-12-29T01:44:52;5.70;99.90
15274;DHT22;7738;49.532;11.156;2022-12-29T01:47:29;5.90;99.90
15274;DHT22;7738;49.532;11.156;2022-12-29T01:50:05;5.90;99.90
15274;DHT22;7738;49.532;11.156;2022-12-29T01:52:43;6.40;99.90
15274;DHT22;7738;49.532;11.156;2022-12-29T01:55:14;5.90;99.90
15274;DHT22;7738;49.532;11.156;2022-12-29T01:57:49;5.70;99.90
15274;DHT22;7738;49.532;11.156;2022-12-29T02:02:52;5.90;99.90
15274;DHT22;7738;49.532;11.156;2022-12-29T02:05:26;6.10;99.90
15274;DHT22;7738;49.532;11.156;2022-12-29T02:08:00;5.80;99.90
15274;DHT22;7738;49.532;11.156;2022-12-29T02:10:35;6.70;99.90
15274;DHT22;7738;49.532;11.156;2022-12-29T02:13:06;5.90;99.90
15274;DHT22;7738;49.532;11.156;2022-12-29T02:15:48;6.00;99.90
15274;DHT22;7738;49.532;11.156;2022-12-29T02:18:32;6.10;99.90
15274;DHT22;7738;49.532;11.156;2022-12-29T02:21:33;6.00;99.90
15274;DHT22;7738;49.532;11.156;2022-12-29T02:24:44;6.00;99.90
15274;DHT22;7738;49.532;11.156;2022-12-29T02:30:36;6.50;99.90
15274;DHT22;7738;49.532;11.156;2022-12-29T02:33:17;6.10;99.90
15274;DHT22;7738;49.532;11.156;2022-12-29T02:35:56;5.90;99.90
15274;DHT22;7738;49.532;11.156;2022-12-29T02:38:42;5.80;99.90
15274;DHT22;7738;49.532;11.156;2022-12-29T02:41:21;6.10;99.90
15274;DHT22;7738;49.532;11.156;2022-12-29T02:43:58;6.10;99.90
15274;DHT22;7738;49.532;11.156;2022-12-29T02:46:35;6.20;99.90
15274;DHT22;7738;49.532;11.156;2022-12-29T02:49:09;6.40;99.90
15274;DHT22;7738;49.532;11.156;2022-12-29T02:51:50;6.40;99.90
15274;DHT22;7738;49.532;11.156;2022-12-29T02:57:04;6.00;99.90
15274;DHT22;7738;49.532;11.156;2022-12-29T02:59:35;6.40;99.90
15274;DHT22;7738;49.532;11.156;2022-12-29T03:02:24;5.80;99.90
15274;DHT22;7738;49.532;11.156;2022-12-29T03:05:18;5.90;99.90
15274;DHT22;7738;49.532;11.156;2022-12-29T03:07:57;6.00;99.90
15274;DHT22;7738;49.532;11.156;2022-12-29T03:10:37;6.40;99.90
15274;DHT22;7738;49.532;11.156;2022-12-29T03:13:18;6.20;99.90
15274;DHT22;7738;49.532;11.156;2022-12-29T03:16:10;6.30;99.90
15274;DHT22;7738;49.532;11.156;2022-12-29T03:18:55;6.10;99.90
15274;DHT22;7738;49.532;11.156;2022-12-29T03:21:32;5.90;99.90
15274;DHT22;7738;49.532;11.156;2022-12-29T03:24:20;6.10;99.90
15274;DHT22;7738;49.532;11.156;2022-12-29T03:26:52;6.10;99.90
15274;DHT22;7738;49.532;11.156;2022-12-29T03:29:24;6.10;99.90
15274;DHT22;7738;49.532;11.156;2022-12-29T03:31:57;6.00;99.90
15274;DHT22;7738;49.532;11.156;2022-12-29T03:34:31;6.00;99.90
15274;DHT22;7738;49.532;11.156;2022-12-29T03:37:04;6.10;99.90
15274;DHT22;7738;49.532;11.156;2022-12-29T03:42:11;6.20;99.90
15274;DHT22;7738;49.532;11.156;2022-12-29T03:44:45;6.40;99.90
15274;DHT22;7738;49.532;11.156;2022-12-29T03:47:15;6.10;99.90
15274;DHT22;7738;49.532;11.156;2022-12-29T03:49:48;6.40;99.90
15274;DHT22;7738;49.532;11.156;2022-12-29T03:52:19;6.50;99.90
15274;DHT22;7738;49.532;11.156;2022-12-29T03:54:51;6.20;99.90
15274;DHT22;7738;49.532;11.156;2022-12-29T03:59:59;6.40;99.90
15274;DHT22;7738;49.532;11.156;2022-12-29T04:05:05;6.30;99.90
15274;DHT22;7738;49.532;11.156;2022-12-29T04:07:36;6.40;99.90
15274;DHT22;7738;49.532;11.156;2022-12-29T04:10:08;6.20;99.90
15274;DHT22;7738;49.532;11.156;2022-12-29T04:15:09;6.10;99.90
15274;DHT22;7738;49.532;11.156;2022-12-29T04:20:14;6.40;99.90
15274;DHT22;7738;49.532;11.156;2022-12-29T04:22:59;5.70;99.90
15274;DHT22;7738;49.532;11.156;2022-12-29T04:25:30;6.20;99.90
15274;DHT22;7738;49.532;11.156;2022-12-29T04:28:02;5.70;99.90
15274;DHT22;7738;49.532;11.156;2022-12-29T04:30:53;6.00;99.90
15274;DHT22;7738;49.532;11.156;2022-12-29T04:36:05;6.00;99.90
15274;DHT22;7738;49.532;11.156;2022-12-29T04:38:36;6.00;99.90
15274;DHT22;7738;49.532;11.156;2022-12-29T04:43:39;5.80;99.90
15274;DHT22;7738;49.532;11.156;2022-12-29T04:46:27;6.30;99.90
15274;DHT22;7738;49.532;11.156;2022-12-29T04:49:04;6.00;99.90
15274;DHT22;7738;49.532;11.156;2022-12-29T04:51:53;5.80;99.90
15274;DHT22;7738;49.532;11.156;2022-12-29T04:59:33;6.30;99.90
15274;DHT22;7738;49.532;11.156;2022-12-29T05:04:35;6.00;99.90
15274;DHT22;7738;49.532;11.156;2022-12-29T05:07:08;5.90;99.90
15274;DHT22;7738;49.532;11.156;2022-12-29T05:09:38;6.20;99.90
15274;DHT22;7738;49.532;11.156;2022-12-29T05:12:09;5.80;99.90
15274;DHT22;7738;49.532;11.156;2022-12-29T05:17:20;5.50;99.90
15274;DHT22;7738;49.532;11.156;2022-12-29T05:19:50;5.60;99.90
15274;DHT22;7738;49.532;11.156;2022-12-29T05:22:22;5.60;99.90
15274;DHT22;7738;49.532;11.156;2022-12-29T05:24:54;5.80;99.90
15274;DHT22;7738;49.532;11.156;2022-12-29T05:30:08;5.50;99.90
15274;DHT22;7738;49.532;11.156;2022-12-29T09:43:27;8.80;99.90
15274;DHT22;7738;49.532;11.156;2022-12-29T10:01:28;8.90;99.90
15274;DHT22;7738;49.532;11.156;2022-12-29T10:09:35;8.90;99.90
15274;DHT22;7738;49.532;11.156;2022-12-29T10:12:17;8.90;99.90
15274;DHT22;7738;49.532;11.156;2022-12-29T10:15:02;8.90;99.90
15274;DHT22;7738;49.532;11.156;2022-12-29T10:17:41;8.90;99.90
15274;DHT22;7738;49.532;11.156;2022-12-29T10:20:24;8.80;99.90
15274;DHT22;7738;49.532;11.156;2022-12-29T10:23:04;8.80;99.90
15274;DHT22;7738;49.532;11.156;2022-12-29T10:25:41;8.70;99.90
15274;DHT22;7738;49.532;11.156;2022-12-29T10:33:24;8.80;99.90
15274;DHT22;7738;49.532;11.156;2022-12-29T10:38:30;8.80;99.90
15274;DHT22;7738;49.532;11.156;2022-12-29T10:41:11;9.00;99.90
15274;DHT22;7738;49.532;11.156;2022-12-29T10:43:45;9.00;99.90
15274;DHT22;7738;49.532;11.156;2022-12-29T10:46:20;9.00;99.90
15274;DHT22;7738;49.532;11.156;2022-12-29T10:53:57;9.10;99.90
15274;DHT22;7738;49.532;11.156;2022-12-29T10:59:13;9.30;99.90
15274;DHT22;7738;49.532;11.156;2022-12-29T11:01:56;9.40;99.90
15274;DHT22;7738;49.532;11.156;2022-12-29T11:09:44;9.50;99.90
15274;DHT22;7738;49.532;11.156;2022-12-29T11:12:23;9.60;99.90
15274;DHT22;7738;49.532;11.156;2022-12-29T11:15:05;9.60;99.90
15274;DHT22;7738;49.532;11.156;2022-12-29T11:17:48;9.60;99.90
15274;DHT22;7738;49.532;11.156;2022-12-29T11:20:31;10.10;99.90
15274;DHT22;7738;49.532;11.156;2022-12-29T11:23:03;9.60;99.90
15274;DHT22;7738;49.532;11.156;2022-12-29T11:28:16;9.80;99.90
15274;DHT22;7738;49.532;11.156;2022-12-29T11:30:59;9.80;99.90
15274;DHT22;7738;49.532;11.156;2022-12-29T11:33:35;9.80;99.90
15274;DHT22;7738;49.532;11.156;2022-12-29T11:36:07;9.70;99.90
15274;DHT22;7738;49.532;11.156;2022-12-29T11:38:41;9.90;99.90
15274;DHT22;7738;49.532;11.156;2022-12-29T11:41:13;10.10;99.90
15274;DHT22;7738;49.532;11.156;2022-12-29T11:43:49;10.20;99.90
15274;DHT22;7738;49.532;11.156;2022-12-29T11:46:21;10.30;99.90
15274;DHT22;7738;49.532;11.156;2022-12-29T11:48:56;10.40;99.90
15274;DHT22;7738;49.532;11.156;2022-12-29T11:51:30;10.40;99.90
15274;DHT22;7738;49.532;11.156;2022-12-29T11:54:03;10.40;99.90
15274;DHT22;7738;49.532;11.156;2022-12-29T11:56:36;10.40;99.90
15274;DHT22;7738;49.532;11.156;2022-12-29T12:02:26;10.80;99.90
15274;DHT22;7738;49.532;11.156;2022-12-29T12:05:20;10.50;99.90
15274;DHT22;7738;49.532;11.156;2022-12-29T12:07:55;10.50;99.90
15274;DHT22;7738;49.532;11.156;2022-12-29T12:10:31;10.60;99.90
15274;DHT22;7738;49.532;11.156;2022-12-29T12:13:14;10.80;99.90
15274;DHT22;7738;49.532;11.156;2022-12-29T12:15:52;10.70;99.90
15274;DHT22;7738;49.532;11.156;2022-12-29T12:18:32;11.00;99.90
15274;DHT22;7738;49.532;11.156;2022-12-29T12:21:12;10.60;99.90
15274;DHT22;7738;49.532;11.156;2022-12-29T12:26:55;10.60;99.90
15274;DHT22;7738;49.532;11.156;2022-12-29T12:29:35;10.50;99.90
15274;DHT22;7738;49.532;11.156;2022-12-29T12:32:13;10.40;99.90
15274;DHT22;7738;49.532;11.156;2022-12-29T12:34:46;10.50;99.90
15274;DHT22;7738;49.532;11.156;2022-12-29T12:37:38;10.30;99.90
15274;DHT22;7738;49.532;11.156;2022-12-29T12:43:27;10.00;99.90
15274;DHT22;7738;49.532;11.156;2022-12-29T12:46:15;9.70;99.90
15274;DHT22;7738;49.532;11.156;2022-12-29T12:49:01;9.60;99.90
15274;DHT22;7738;49.532;11.156;2022-12-29T12:51:42;9.40;99.90
15274;DHT22;7738;49.532;11.156;2022-12-29T12:54:30;9.30;99.90
15274;DHT22;7738;49.532;11.156;2022-12-29T12:57:11;9.00;99.90
15274;DHT22;7738;49.532;11.156;2022-12-29T12:59:51;9.00;99.90
15274;DHT22;7738;49.532;11.156;2022-12-29T13:02:34;9.00;99.90
15274;DHT22;7738;49.532;11.156;2022-12-29T13:05:26;9.00;99.90
15274;DHT22;7738;49.532;11.156;2022-12-29T13:08:11;8.90;99.90
15274;DHT22;7738;49.532;11.156;2022-12-29T13:10:53;9.00;99.90
15274;DHT22;7738;49.532;11.156;2022-12-29T13:16:39;9.20;99.90
15274;DHT22;7738;49.532;11.156;2022-12-29T13:19:19;9.30;99.90
15274;DHT22;7738;49.532;11.156;2022-12-29T13:22:01;9.30;99.90
15274;DHT22;7738;49.532;11.156;2022-12-29T13:24:41;9.40;99.90
15274;DHT22;7738;49.532;11.156;2022-12-29T13:27:24;9.40;99.90
15274;DHT22;7738;49.532;11.156;2022-12-29T13:30:05;9.40;99.90
15274;DHT22;7738;49.532;11.156;2022-12-29T13:32:53;9.40;99.90
15274;DHT22;7738;49.532;11.156;2022-12-29T13:35:42;9.40;99.90
15274;DHT22;7738;49.532;11.156;2022-12-29T13:38:21;10.80;99.90
15274;DHT22;7738;49.532;11.156;2022-12-29T13:40:55;9.50;99.90
15274;DHT22;7738;49.532;11.156;2022-12-29T13:43:30;9.60;99.90
15274;DHT22;7738;49.532;11.156;2022-12-29T13:46:06;9.50;99.90
15274;DHT22;7738;49.532;11.156;2022-12-29T13:48:41;9.50;99.90
15274;DHT22;7738;49.532;11.156;2022-12-29T13:51:13;9.50;99.90
15274;DHT22;7738;49.532;11.156;2022-12-29T13:54:04;9.50;99.90
15274;DHT22;7738;49.532;11.156;2022-12-29T13:56:39;9.50;99.90
15274;DHT22;7738;49.532;11.156;2022-12-29T13:59:19;9.50;99.90
15274;DHT22;7738;49.532;11.156;2022-12-29T14:01:55;9.40;99.90
15274;DHT22;7738;49.532;11.156;2022-12-29T14:04:28;9.40;99.90
15274;DHT22;7738;49.532;11.156;2022-12-29T14:07:03;9.30;99.90
15274;DHT22;7738;49.532;11.156;2022-12-29T14:09:44;12.20;99.90
15274;DHT22;7738;49.532;11.156;2022-12-29T14:12:28;9.20;99.90
15274;DHT22;7738;49.532;11.156;2022-12-29T14:15:19;9.40;99.90
15274;DHT22;7738;49.532;11.156;2022-12-29T14:18:05;9.20;99.90
15274;DHT22;7738;49.532;11.156;2022-12-29T14:20:35;9.20;99.90
15274;DHT22;7738;49.532;11.156;2022-12-29T14:23:25;9.10;99.90
15274;DHT22;7738;49.532;11.156;2022-12-29T14:26:09;9.20;99.90
15274;DHT22;7738;49.532;11.156;2022-12-29T14:28:41;9.10;99.90
15274;DHT22;7738;49.532;11.156;2022-12-29T14:31:38;9.20;99.90
15274;DHT22;7738;49.532;11.156;2022-12-29T14:34:27;9.20;99.90
15274;DHT22;7738;49.532;11.156;2022-12-29T14:36:59;9.20;99.90
15274;DHT22;7738;49.532;11.156;2022-12-29T14:39:39;9.20;99.90
15274;DHT22;7738;49.532;11.156;2022-12-29T14:42:13;9.40;99.90
15274;DHT22;7738;49.532;11.156;2022-12-29T14:44:47;9.10;99.90
15274;DHT22;7738;49.532;11.156;2022-12-29T14:47:25;9.10;99.90
15274;DHT22;7738;49.532;11.156;2022-12-29T14:50:03;9.10;99.90
15274;DHT22;7738;49.532;11.156;2022-12-29T14:52:43;9.10;99.90
15274;DHT22;7738;49.532;11.156;2022-12-29T14:55:32;9.10;99.90
15274;DHT22;7738;49.532;11.156;2022-12-29T14:58:12;9.10;99.90
15274;DHT22;7738;49.532;11.156;2022-12-29T15:00:44;9.00;99.90
15274;DHT22;7738;49.532;11.156;2022-12-29T15:03:22;9.00;99.90
15274;DHT22;7738;49.532;11.156;2022-12-29T15:05:55;9.00;99.90
15274;DHT22;7738;49.532;11.156;2022-12-29T15:08:35;9.00;99.90
15274;DHT22;7738;49.532;11.156;2022-12-29T15:11:13;9.00;99.90
15274;DHT22;7738;49.532;11.156;2022-12-29T15:13:44;9.00;99.90
15274;DHT22;7738;49.532;11.156;2022-12-29T15:16:24;11.20;99.90
15274;DHT22;7738;49.532;11.156;2022-12-29T15:18:58;9.00;99.90
15274;DHT22;7738;49.532;11.156;2022-12-29T15:21:30;9.00;99.90
15274;DHT22;7738;49.532;11.156;2022-12-29T15:24:00;8.90;99.90
15274;DHT22;7738;49.532;11.156;2022-12-29T15:26:37;8.90;99.90
15274;DHT22;7738;49.532;11.156;2022-12-29T15:29:29;8.90;99.90
15274;DHT22;7738;49.532;11.156;2022-12-29T15:32:01;8.90;99.90
15274;DHT22;7738;49.532;11.156;2022-12-29T15:34:42;8.90;99.90
15274;DHT22;7738;49.532;11.156;2022-12-29T15:37:20;8.80;99.90
15274;DHT22;7738;49.532;11.156;2022-12-29T15:39:51;8.80;99.90
15274;DHT22;7738;49.532;11.156;2022-12-29T15:42:45;9.00;99.90
15274;DHT22;7738;49.532;11.156;2022-12-29T15:45:19;8.80;99.90
15274;DHT22;7738;49.532;11.156;2022-12-29T15:47:50;8.80;99.90
15274;DHT22;7738;49.532;11.156;2022-12-29T15:50:27;8.80;99.90
15274;DHT22;7738;49.532;11.156;2022-12-29T15:52:59;8.80;99.90
15274;DHT22;7738;49.532;11.156;2022-12-29T15:55:32;8.70;99.90
15274;DHT22;7738;49.532;11.156;2022-12-29T15:58:15;8.70;99.90
15274;DHT22;7738;49.532;11.156;2022-12-29T16:00:48;8.70;99.90
15274;DHT22;7738;49.532;11.156;2022-12-29T16:03:21;8.60;99.90
15274;DHT22;7738;49.532;11.156;2022-12-29T16:05:57;8.60;99.90
15274;DHT22;7738;49.532;11.156;2022-12-29T16:08:37;8.60;99.90
15274;DHT22;7738;49.532;11.156;2022-12-29T16:11:21;8.70;99.90
15274;DHT22;7738;49.532;11.156;2022-12-29T16:13:54;8.50;99.90
15274;DHT22;7738;49.532;11.156;2022-12-29T16:16:28;8.50;99.90
15274;DHT22;7738;49.532;11.156;2022-12-29T16:18:59;8.50;99.90
15274;DHT22;7738;49.532;11.156;2022-12-29T16:21:37;8.50;99.90
15274;DHT22;7738;49.532;11.156;2022-12-29T16:24:13;8.50;99.90
15274;DHT22;7738;49.532;11.156;2022-12-29T16:26:48;8.50;99.90
15274;DHT22;7738;49.532;11.156;2022-12-29T16:29:20;8.40;99.90
15274;DHT22;7738;49.532;11.156;2022-12-29T16:31:53;8.50;99.90
15274;DHT22;7738;49.532;11.156;2022-12-29T16:34:30;8.40;99.90
15274;DHT22;7738;49.532;11.156;2022-12-29T16:37:27;8.50;99.90
15274;DHT22;7738;49.532;11.156;2022-12-29T16:40:25;8.50;99.90
15274;DHT22;7738;49.532;11.156;2022-12-29T16:42:59;8.50;99.90
15274;DHT22;7738;49.532;11.156;2022-12-29T16:48:30;8.40;99.90
15274;DHT22;7738;49.532;11.156;2022-12-29T16:51:05;8.50;99.90
15274;DHT22;7738;49.532;11.156;2022-12-29T16:53:40;8.40;99.90
15274;DHT22;7738;49.532;11.156;2022-12-29T16:56:14;8.50;99.90
15274;DHT22;7738;49.532;11.156;2022-12-29T16:58:47;8.40;99.90
15274;DHT22;7738;49.532;11.156;2022-12-29T17:01:18;8.40;99.90
15274;DHT22;7738;49.532;11.156;2022-12-29T17:03:50;8.40;99.90
15274;DHT22;7738;49.532;11.156;2022-12-29T17:06:23;8.40;99.90
15274;DHT22;7738;49.532;11.156;2022-12-29T17:08:55;8.40;99.90
15274;DHT22;7738;49.532;11.156;2022-12-29T17:11:28;8.40;99.90
15274;DHT22;7738;49.532;11.156;2022-12-29T17:17:17;8.40;99.90
15274;DHT22;7738;49.532;11.156;2022-12-29T17:19:50;8.40;99.90
15274;DHT22;7738;49.532;11.156;2022-12-29T17:22:23;8.00;99.90
15274;DHT22;7738;49.532;11.156;2022-12-29T17:25:00;8.20;99.90
15274;DHT22;7738;49.532;11.156;2022-12-29T17:27:35;8.10;99.90
15274;DHT22;7738;49.532;11.156;2022-12-29T17:30:11;8.00;99.90
15274;DHT22;7738;49.532;11.156;2022-12-29T17:32:51;7.90;99.90
15274;DHT22;7738;49.532;11.156;2022-12-29T17:40:28;7.90;99.90
15274;DHT22;7738;49.532;11.156;2022-12-29T17:42:59;7.90;99.90
15274;DHT22;7738;49.532;11.156;2022-12-29T17:45:31;7.70;99.90
15274;DHT22;7738;49.532;11.156;2022-12-29T17:50:31;7.60;99.90
15274;DHT22;7738;49.532;11.156;2022-12-29T17:53:03;7.50;99.90
15274;DHT22;7738;49.532;11.156;2022-12-29T17:55:37;7.40;99.90
15274;DHT22;7738;49.532;11.156;2022-12-29T17:58:15;7.40;99.90
15274;DHT22;7738;49.532;11.156;2022-12-29T18:00:46;7.40;99.90
15274;DHT22;7738;49.532;11.156;2022-12-29T18:08:18;7.30;99.90
15274;DHT22;7738;49.532;11.156;2022-12-29T18:10:52;7.20;99.90
15274;DHT22;7738;49.532;11.156;2022-12-29T18:13:25;7.20;99.90
15274;DHT22;7738;49.532;11.156;2022-12-29T18:16:10;7.10;99.90
15274;DHT22;7738;49.532;11.156;2022-12-29T18:18:41;7.10;99.90
15274;DHT22;7738;49.532;11.156;2022-12-29T18:21:16;7.00;99.90
15274;DHT22;7738;49.532;11.156;2022-12-29T18:23:47;7.00;99.90
15274;DHT22;7738;49.532;11.156;2022-12-29T18:26:21;6.90;99.90
15274;DHT22;7738;49.532;11.156;2022-12-29T18:28:55;6.90;99.90
15274;DHT22;7738;49.532;11.156;2022-12-29T18:31:27;6.90;99.90
15274;DHT22;7738;49.532;11.156;2022-12-29T18:33:58;6.80;99.90
15274;DHT22;7738;49.532;11.156;2022-12-29T18:36:29;6.80;99.90
15274;DHT22;7738;49.532;11.156;2022-12-29T18:41:32;6.60;99.90
15274;DHT22;7738;49.532;11.156;2022-12-29T18:46:32;6.60;99.90
15274;DHT22;7738;49.532;11.156;2022-12-29T18:49:02;6.60;99.90
15274;DHT22;7738;49.532;11.156;2022-12-29T18:51:33;6.60;99.90
15274;DHT22;7738;49.532;11.156;2022-12-29T18:56:36;6.70;99.90
15274;DHT22;7738;49.532;11.156;2022-12-29T19:04:09;6.60;99.90
15274;DHT22;7738;49.532;11.156;2022-12-29T19:06:41;6.50;99.90
15274;DHT22;7738;49.532;11.156;2022-12-29T19:11:44;6.60;99.90
15274;DHT22;7738;49.532;11.156;2022-12-29T19:14:15;6.50;99.90
15274;DHT22;7738;49.532;11.156;2022-12-29T19:26:55;6.60;99.90
15274;DHT22;7738;49.532;11.156;2022-12-29T19:34:28;6.70;99.90
15274;DHT22;7738;49.532;11.156;2022-12-29T19:36:58;6.70;99.90
15274;DHT22;7738;49.532;11.156;2022-12-29T19:42:01;6.70;99.90
15274;DHT22;7738;49.532;11.156;2022-12-29T19:44:31;6.60;99.90
15274;DHT22;7738;49.532;11.156;2022-12-29T19:57:05;6.60;99.90
15274;DHT22;7738;49.532;11.156;2022-12-29T20:02:08;6.60;99.90
15274;DHT22;7738;49.532;11.156;2022-12-29T20:12:20;6.60;99.90
15274;DHT22;7738;49.532;11.156;2022-12-29T20:14:55;6.50;99.90
15274;DHT22;7738;49.532;11.156;2022-12-29T20:28:09;6.50;99.90
15274;DHT22;7738;49.532;11.156;2022-12-29T20:33:09;6.50;99.90
15274;DHT22;7738;49.532;11.156;2022-12-29T20:43:15;8.20;99.90
15274;DHT22;7738;49.532;11.156;2022-12-29T20:58:20;6.40;99.90
15274;DHT22;7738;49.532;11.156;2022-12-29T21:00:54;6.40;99.90
15274;DHT22;7738;49.532;11.156;2022-12-29T21:03:25;6.40;99.90
15274;DHT22;7738;49.532;11.156;2022-12-29T21:05:55;6.40;99.90
15274;DHT22;7738;49.532;11.156;2022-12-29T21:08:26;6.40;99.90
15274;DHT22;7738;49.532;11.156;2022-12-29T21:10:57;6.40;99.90
15274;DHT22;7738;49.532;11.156;2022-12-29T21:13:30;6.30;99.90
15274;DHT22;7738;49.532;11.156;2022-12-29T21:16:03;6.30;99.90
15274;DHT22;7738;49.532;11.156;2022-12-29T21:18:34;6.30;99.90
15274;DHT22;7738;49.532;11.156;2022-12-29T21:21:06;6.30;99.90
15274;DHT22;7738;49.532;11.156;2022-12-29T21:23:37;6.30;99.90
15274;DHT22;7738;49.532;11.156;2022-12-29T21:26:07;6.30;99.90
15274;DHT22;7738;49.532;11.156;2022-12-29T21:28:40;6.30;99.90
15274;DHT22;7738;49.532;11.156;2022-12-29T21:31:22;6.40;99.90
15274;DHT22;7738;49.532;11.156;2022-12-29T21:36:24;6.40;99.90
15274;DHT22;7738;49.532;11.156;2022-12-29T21:41:25;6.40;99.90
15274;DHT22;7738;49.532;11.156;2022-12-29T21:43:58;6.40;99.90
15274;DHT22;7738;49.532;11.156;2022-12-29T21:46:41;6.40;99.90
15274;DHT22;7738;49.532;11.156;2022-12-29T21:49:13;6.40;99.90
15274;DHT22;7738;49.532;11.156;2022-12-29T21:51:43;6.40;99.90
15274;DHT22;7738;49.532;11.156;2022-12-29T21:54:22;6.40;99.90
15274;DHT22;7738;49.532;11.156;2022-12-29T21:57:05;6.30;99.90
15274;DHT22;7738;49.532;11.156;2022-12-29T21:59:37;6.30;99.90
15274;DHT22;7738;49.532;11.156;2022-12-29T22:02:22;6.20;99.90
15274;DHT22;7738;49.532;11.156;2022-12-29T22:05:07;6.20;99.90
15274;DHT22;7738;49.532;11.156;2022-12-29T22:07:51;6.30;99.90
15274;DHT22;7738;49.532;11.156;2022-12-29T22:10:37;6.30;99.90
15274;DHT22;7738;49.532;11.156;2022-12-29T22:13:19;6.30;99.90
15274;DHT22;7738;49.532;11.156;2022-12-29T22:15:52;6.30;99.90
15274;DHT22;7738;49.532;11.156;2022-12-29T22:18:22;6.30;99.90
15274;DHT22;7738;49.532;11.156;2022-12-29T22:20:52;6.30;99.90
15274;DHT22;7738;49.532;11.156;2022-12-29T22:30:55;6.20;99.90
15274;DHT22;7738;49.532;11.156;2022-12-29T22:33:27;6.20;99.90
15274;DHT22;7738;49.532;11.156;2022-12-29T22:40:58;6.20;99.90
15274;DHT22;7738;49.532;11.156;2022-12-29T22:46:03;6.10;99.90
15274;DHT22;7738;49.532;11.156;2022-12-29T22:48:34;6.10;99.90
15274;DHT22;7738;49.532;11.156;2022-12-29T22:51:05;6.10;99.90
15274;DHT22;7738;49.532;11.156;2022-12-29T22:56:08;6.10;99.90
15274;DHT22;7738;49.532;11.156;2022-12-29T23:01:14;6.00;99.90
15274;DHT22;7738;49.532;11.156;2022-12-29T23:03:45;6.00;99.90
15274;DHT22;7738;49.532;11.156;2022-12-29T23:06:16;5.90;99.90
15274;DHT22;7738;49.532;11.156;2022-12-29T23:16:20;5.80;99.90
15274;DHT22;7738;49.532;11.156;2022-12-29T23:18:50;5.90;99.90
15274;DHT22;7738;49.532;11.156;2022-12-29T23:26:33;5.80;99.90
15274;DHT22;7738;49.532;11.156;2022-12-29T23:29:05;5.70;99.90
15274;DHT22;7738;49.532;11.156;2022-12-29T23:31:38;5.70;99.90
15274;DHT22;7738;49.532;11.156;2022-12-29T23:34:10;5.70;99.90
15274;DHT22;7738;49.532;11.156;2022-12-29T23:36:41;5.70;99.90
15274;DHT22;7738;49.532;11.156;2022-12-29T23:39:17;5.70;99.90
15274;DHT22;7738;49.532;11.156;2022-12-29T23:41:49;5.70;99.90
15274;DHT22;7738;49.532;11.156;2022-12-29T23:46:52;5.70;99.90
15274;DHT22;7738;49.532;11.156;2022-12-29T23:59:24;5.70;99.90
